sensor_id;sensor_type;location;lat;lon;timestamp;temperature;humidity
50955;DHT22;36966;48.064;-0.792;2023-06-22T00:02:16;26.10;49.60
50955;DHT22;36966;48.064;-0.792;2023-06-22T00:04:36;26.10;49.70
50955;DHT22;36966;48.064;-0.792;2023-06-22T00:06:55;26.10;49.70
50955;DHT22;36966;48.064;-0.792;2023-06-22T00:09:14;26.10;49.70
50955;DHT22;36966;48.064;-0.792;2023-06-22T00:11:34;26.10;49.80
50955;DHT22;36966;48.064;-0.792;2023-06-22T00:13:53;26.10;49.80
50955;DHT22;36966;48.064;-0.792;2023-06-22T00:16:12;26.10;49.80
50955;DHT22;36966;48.064;-0.792;2023-06-22T00:18:32;26.10;49.90
50955;DHT22;36966;48.064;-0.792;2023-06-22T00:20:51;26.10;49.90
50955;DHT22;36966;48.064;-0.792;2023-06-22T00:23:11;26.10;49.80
50955;DHT22;36966;48.064;-0.792;2023-06-22T00:25:30;26.00;49.90
50955;DHT22;36966;48.064;-0.792;2023-06-22T00:27:49;26.10;49.90
50955;DHT22;36966;48.064;-0.792;2023-06-22T00:30:08;26.00;49.90
50955;DHT22;36966;48.064;-0.792;2023-06-22T00:32:28;26.00;49.90
50955;DHT22;36966;48.064;-0.792;2023-06-22T00:34:47;26.00;50.00
50955;DHT22;36966;48.064;-0.792;2023-06-22T00:37:07;26.00;50.00
50955;DHT22;36966;48.064;-0.792;2023-06-22T00:39:26;26.00;50.00
50955;DHT22;36966;48.064;-0.792;2023-06-22T00:41:47;26.00;50.10
50955;DHT22;36966;48.064;-0.792;2023-06-22T00:44:07;26.00;50.10
50955;DHT22;36966;48.064;-0.792;2023-06-22T00:46:27;26.00;50.10
50955;DHT22;36966;48.064;-0.792;2023-06-22T00:48:46;26.00;50.10
50955;DHT22;36966;48.064;-0.792;2023-06-22T00:51:06;26.00;50.10
50955;DHT22;36966;48.064;-0.792;2023-06-22T00:53:25;26.00;50.20
50955;DHT22;36966;48.064;-0.792;2023-06-22T00:55:44;26.00;50.20
50955;DHT22;36966;48.064;-0.792;2023-06-22T00:58:08;26.00;50.30
50955;DHT22;36966;48.064;-0.792;2023-06-22T01:00:29;26.00;50.20
50955;DHT22;36966;48.064;-0.792;2023-06-22T01:02:48;26.00;50.20
50955;DHT22;36966;48.064;-0.792;2023-06-22T01:05:10;26.00;50.20
50955;DHT22;36966;48.064;-0.792;2023-06-22T01:07:35;26.00;50.30
50955;DHT22;36966;48.064;-0.792;2023-06-22T01:10:07;26.00;50.40
50955;DHT22;36966;48.064;-0.792;2023-06-22T01:12:30;25.90;50.30
50955;DHT22;36966;48.064;-0.792;2023-06-22T01:14:53;25.90;50.40
50955;DHT22;36966;48.064;-0.792;2023-06-22T01:17:14;25.90;50.40
50955;DHT22;36966;48.064;-0.792;2023-06-22T01:19:45;25.90;50.40
50955;DHT22;36966;48.064;-0.792;2023-06-22T01:22:15;25.90;50.60
50955;DHT22;36966;48.064;-0.792;2023-06-22T01:24:45;25.90;50.50
50955;DHT22;36966;48.064;-0.792;2023-06-22T01:27:28;25.90;50.50
50955;DHT22;36966;48.064;-0.792;2023-06-22T01:29:55;25.90;50.60
50955;DHT22;36966;48.064;-0.792;2023-06-22T01:32:19;25.90;50.60
50955;DHT22;36966;48.064;-0.792;2023-06-22T01:34:39;25.90;50.60
50955;DHT22;36966;48.064;-0.792;2023-06-22T01:36:59;25.90;50.60
50955;DHT22;36966;48.064;-0.792;2023-06-22T01:39:20;25.90;50.70
50955;DHT22;36966;48.064;-0.792;2023-06-22T01:41:40;25.90;50.60
50955;DHT22;36966;48.064;-0.792;2023-06-22T01:44:01;25.90;50.70
50955;DHT22;36966;48.064;-0.792;2023-06-22T01:46:21;25.90;50.80
50955;DHT22;36966;48.064;-0.792;2023-06-22T01:48:40;25.90;50.70
50955;DHT22;36966;48.064;-0.792;2023-06-22T01:50:59;25.90;50.80
50955;DHT22;36966;48.064;-0.792;2023-06-22T01:53:20;25.90;50.90
50955;DHT22;36966;48.064;-0.792;2023-06-22T01:55:40;25.90;50.80
50955;DHT22;36966;48.064;-0.792;2023-06-22T01:57:59;25.90;50.90
50955;DHT22;36966;48.064;-0.792;2023-06-22T02:00:19;25.90;50.90
50955;DHT22;36966;48.064;-0.792;2023-06-22T02:02:42;25.90;50.80
50955;DHT22;36966;48.064;-0.792;2023-06-22T02:05:03;25.80;50.90
50955;DHT22;36966;48.064;-0.792;2023-06-22T02:07:24;25.80;51.00
50955;DHT22;36966;48.064;-0.792;2023-06-22T02:09:47;25.80;51.00
50955;DHT22;36966;48.064;-0.792;2023-06-22T02:12:08;25.80;51.00
50955;DHT22;36966;48.064;-0.792;2023-06-22T02:14:29;25.80;51.00
50955;DHT22;36966;48.064;-0.792;2023-06-22T02:16:49;25.80;51.00
50955;DHT22;36966;48.064;-0.792;2023-06-22T02:19:08;25.80;51.10
50955;DHT22;36966;48.064;-0.792;2023-06-22T02:21:27;25.80;51.10
50955;DHT22;36966;48.064;-0.792;2023-06-22T02:23:47;25.80;51.10
50955;DHT22;36966;48.064;-0.792;2023-06-22T02:26:06;25.80;51.20
50955;DHT22;36966;48.064;-0.792;2023-06-22T02:28:25;25.80;51.20
50955;DHT22;36966;48.064;-0.792;2023-06-22T02:30:44;25.80;51.20
50955;DHT22;36966;48.064;-0.792;2023-06-22T02:33:03;25.80;51.20
50955;DHT22;36966;48.064;-0.792;2023-06-22T02:35:23;25.80;51.30
50955;DHT22;36966;48.064;-0.792;2023-06-22T02:37:42;25.80;51.30
50955;DHT22;36966;48.064;-0.792;2023-06-22T02:40:01;25.80;51.30
50955;DHT22;36966;48.064;-0.792;2023-06-22T02:42:23;25.80;51.30
50955;DHT22;36966;48.064;-0.792;2023-06-22T02:44:42;25.80;51.40
50955;DHT22;36966;48.064;-0.792;2023-06-22T02:47:02;25.80;51.40
50955;DHT22;36966;48.064;-0.792;2023-06-22T02:49:21;25.80;51.50
50955;DHT22;36966;48.064;-0.792;2023-06-22T02:51:42;25.80;51.40
50955;DHT22;36966;48.064;-0.792;2023-06-22T02:54:01;25.80;51.50
50955;DHT22;36966;48.064;-0.792;2023-06-22T02:56:20;25.80;51.50
50955;DHT22;36966;48.064;-0.792;2023-06-22T02:58:44;25.80;51.50
50955;DHT22;36966;48.064;-0.792;2023-06-22T03:01:03;25.70;51.50
50955;DHT22;36966;48.064;-0.792;2023-06-22T03:03:23;25.70;51.50
50955;DHT22;36966;48.064;-0.792;2023-06-22T03:05:45;25.80;51.50
50955;DHT22;36966;48.064;-0.792;2023-06-22T03:08:04;25.70;51.50
50955;DHT22;36966;48.064;-0.792;2023-06-22T03:10:24;25.70;51.50
50955;DHT22;36966;48.064;-0.792;2023-06-22T03:12:43;25.70;51.40
50955;DHT22;36966;48.064;-0.792;2023-06-22T03:15:02;25.70;51.50
50955;DHT22;36966;48.064;-0.792;2023-06-22T03:17:22;25.70;51.50
50955;DHT22;36966;48.064;-0.792;2023-06-22T03:19:41;25.70;51.60
50955;DHT22;36966;48.064;-0.792;2023-06-22T03:22:01;25.70;51.50
50955;DHT22;36966;48.064;-0.792;2023-06-22T03:24:20;25.70;51.50
50955;DHT22;36966;48.064;-0.792;2023-06-22T03:26:39;25.70;51.50
50955;DHT22;36966;48.064;-0.792;2023-06-22T03:28:59;25.70;51.60
50955;DHT22;36966;48.064;-0.792;2023-06-22T03:31:18;25.70;51.50
50955;DHT22;36966;48.064;-0.792;2023-06-22T03:33:40;25.70;51.60
50955;DHT22;36966;48.064;-0.792;2023-06-22T03:36:00;25.70;51.60
50955;DHT22;36966;48.064;-0.792;2023-06-22T03:38:19;25.70;51.50
50955;DHT22;36966;48.064;-0.792;2023-06-22T03:40:39;25.70;51.60
50955;DHT22;36966;48.064;-0.792;2023-06-22T03:42:58;25.70;51.60
50955;DHT22;36966;48.064;-0.792;2023-06-22T03:45:17;25.70;51.50
50955;DHT22;36966;48.064;-0.792;2023-06-22T03:47:36;25.70;51.50
50955;DHT22;36966;48.064;-0.792;2023-06-22T03:49:55;25.70;51.60
50955;DHT22;36966;48.064;-0.792;2023-06-22T03:52:15;25.70;51.60
50955;DHT22;36966;48.064;-0.792;2023-06-22T03:54:34;25.70;51.60
50955;DHT22;36966;48.064;-0.792;2023-06-22T03:56:53;25.70;51.60
50955;DHT22;36966;48.064;-0.792;2023-06-22T03:59:13;25.70;51.60
50955;DHT22;36966;48.064;-0.792;2023-06-22T04:01:32;25.70;51.60
50955;DHT22;36966;48.064;-0.792;2023-06-22T04:03:51;25.70;51.60
50955;DHT22;36966;48.064;-0.792;2023-06-22T04:06:11;25.70;51.60
50955;DHT22;36966;48.064;-0.792;2023-06-22T04:08:31;25.70;51.60
50955;DHT22;36966;48.064;-0.792;2023-06-22T04:10:50;25.70;51.60
50955;DHT22;36966;48.064;-0.792;2023-06-22T04:13:10;25.60;51.60
50955;DHT22;36966;48.064;-0.792;2023-06-22T04:15:29;25.60;51.60
50955;DHT22;36966;48.064;-0.792;2023-06-22T04:17:49;25.60;51.60
50955;DHT22;36966;48.064;-0.792;2023-06-22T04:20:08;25.60;51.60
50955;DHT22;36966;48.064;-0.792;2023-06-22T04:22:27;25.60;51.70
50955;DHT22;36966;48.064;-0.792;2023-06-22T04:24:47;25.60;51.60
50955;DHT22;36966;48.064;-0.792;2023-06-22T04:27:06;25.60;51.70
50955;DHT22;36966;48.064;-0.792;2023-06-22T04:29:26;25.60;51.70
50955;DHT22;36966;48.064;-0.792;2023-06-22T04:31:49;25.60;51.70
50955;DHT22;36966;48.064;-0.792;2023-06-22T04:34:09;25.60;51.80
50955;DHT22;36966;48.064;-0.792;2023-06-22T04:36:29;25.50;51.70
50955;DHT22;36966;48.064;-0.792;2023-06-22T04:38:56;25.60;51.70
50955;DHT22;36966;48.064;-0.792;2023-06-22T04:41:16;25.60;51.70
50955;DHT22;36966;48.064;-0.792;2023-06-22T04:43:42;25.60;51.70
50955;DHT22;36966;48.064;-0.792;2023-06-22T04:46:13;25.50;51.70
50955;DHT22;36966;48.064;-0.792;2023-06-22T04:48:32;25.60;51.80
50955;DHT22;36966;48.064;-0.792;2023-06-22T04:50:52;25.50;51.80
50955;DHT22;36966;48.064;-0.792;2023-06-22T04:53:11;25.60;51.70
50955;DHT22;36966;48.064;-0.792;2023-06-22T04:55:32;25.50;51.70
50955;DHT22;36966;48.064;-0.792;2023-06-22T04:57:51;25.50;51.80
50955;DHT22;36966;48.064;-0.792;2023-06-22T05:00:11;25.50;51.70
50955;DHT22;36966;48.064;-0.792;2023-06-22T05:02:36;25.50;51.70
50955;DHT22;36966;48.064;-0.792;2023-06-22T05:04:57;25.50;51.60
50955;DHT22;36966;48.064;-0.792;2023-06-22T05:07:17;25.50;51.60
50955;DHT22;36966;48.064;-0.792;2023-06-22T05:09:36;25.50;51.50
50955;DHT22;36966;48.064;-0.792;2023-06-22T05:11:55;25.50;51.50
50955;DHT22;36966;48.064;-0.792;2023-06-22T05:14:19;25.50;51.40
50955;DHT22;36966;48.064;-0.792;2023-06-22T05:16:42;25.50;51.30
50955;DHT22;36966;48.064;-0.792;2023-06-22T05:19:02;25.50;51.30
50955;DHT22;36966;48.064;-0.792;2023-06-22T05:21:23;25.50;51.20
50955;DHT22;36966;48.064;-0.792;2023-06-22T05:23:43;25.50;51.20
50955;DHT22;36966;48.064;-0.792;2023-06-22T05:26:02;25.50;51.10
50955;DHT22;36966;48.064;-0.792;2023-06-22T05:28:22;25.50;51.10
50955;DHT22;36966;48.064;-0.792;2023-06-22T05:30:42;25.50;51.10
50955;DHT22;36966;48.064;-0.792;2023-06-22T05:33:02;25.50;51.10
50955;DHT22;36966;48.064;-0.792;2023-06-22T05:35:21;25.50;51.00
50955;DHT22;36966;48.064;-0.792;2023-06-22T05:37:40;25.50;51.00
50955;DHT22;36966;48.064;-0.792;2023-06-22T05:40:00;25.50;51.10
50955;DHT22;36966;48.064;-0.792;2023-06-22T05:42:20;25.50;51.10
50955;DHT22;36966;48.064;-0.792;2023-06-22T05:44:39;25.50;51.20
50955;DHT22;36966;48.064;-0.792;2023-06-22T05:46:59;25.50;51.30
50955;DHT22;36966;48.064;-0.792;2023-06-22T05:49:19;25.50;51.30
50955;DHT22;36966;48.064;-0.792;2023-06-22T05:51:41;25.40;51.50
50955;DHT22;36966;48.064;-0.792;2023-06-22T05:54:00;25.50;51.60
50955;DHT22;36966;48.064;-0.792;2023-06-22T05:56:19;25.40;51.70
50955;DHT22;36966;48.064;-0.792;2023-06-22T05:58:39;25.40;51.80
50955;DHT22;36966;48.064;-0.792;2023-06-22T06:00:58;25.40;51.80
50955;DHT22;36966;48.064;-0.792;2023-06-22T06:03:22;25.40;51.90
50955;DHT22;36966;48.064;-0.792;2023-06-22T06:05:42;25.40;52.00
50955;DHT22;36966;48.064;-0.792;2023-06-22T06:08:02;25.40;52.10
50955;DHT22;36966;48.064;-0.792;2023-06-22T06:10:22;25.50;52.00
50955;DHT22;36966;48.064;-0.792;2023-06-22T06:12:41;25.50;52.00
50955;DHT22;36966;48.064;-0.792;2023-06-22T06:15:01;25.50;52.00
50955;DHT22;36966;48.064;-0.792;2023-06-22T06:17:20;25.50;52.00
50955;DHT22;36966;48.064;-0.792;2023-06-22T06:19:39;25.50;52.00
50955;DHT22;36966;48.064;-0.792;2023-06-22T06:21:59;25.50;52.10
50955;DHT22;36966;48.064;-0.792;2023-06-22T06:24:21;25.50;52.00
50955;DHT22;36966;48.064;-0.792;2023-06-22T06:26:41;25.50;52.10
50955;DHT22;36966;48.064;-0.792;2023-06-22T06:29:00;25.50;52.10
50955;DHT22;36966;48.064;-0.792;2023-06-22T06:31:19;25.50;52.10
50955;DHT22;36966;48.064;-0.792;2023-06-22T06:33:39;25.50;52.30
50955;DHT22;36966;48.064;-0.792;2023-06-22T06:35:59;25.50;52.20
50955;DHT22;36966;48.064;-0.792;2023-06-22T06:38:20;25.50;52.30
50955;DHT22;36966;48.064;-0.792;2023-06-22T06:40:40;25.50;52.30
50955;DHT22;36966;48.064;-0.792;2023-06-22T06:45:56;25.50;52.30
50955;DHT22;36966;48.064;-0.792;2023-06-22T06:48:16;25.50;52.30
50955;DHT22;36966;48.064;-0.792;2023-06-22T06:50:36;25.50;52.30
50955;DHT22;36966;48.064;-0.792;2023-06-22T06:52:55;25.50;52.30
50955;DHT22;36966;48.064;-0.792;2023-06-22T06:55:18;25.50;52.30
50955;DHT22;36966;48.064;-0.792;2023-06-22T06:57:42;25.50;52.30
50955;DHT22;36966;48.064;-0.792;2023-06-22T07:00:02;25.50;52.30
50955;DHT22;36966;48.064;-0.792;2023-06-22T07:02:26;25.50;52.20
50955;DHT22;36966;48.064;-0.792;2023-06-22T07:04:48;25.50;52.20
50955;DHT22;36966;48.064;-0.792;2023-06-22T07:07:07;25.40;52.20
50955;DHT22;36966;48.064;-0.792;2023-06-22T07:09:27;25.50;52.30
50955;DHT22;36966;48.064;-0.792;2023-06-22T07:11:46;25.50;52.20
50955;DHT22;36966;48.064;-0.792;2023-06-22T07:14:06;25.50;52.10
50955;DHT22;36966;48.064;-0.792;2023-06-22T07:16:25;25.50;52.20
50955;DHT22;36966;48.064;-0.792;2023-06-22T07:18:47;25.40;52.10
50955;DHT22;36966;48.064;-0.792;2023-06-22T07:21:06;25.40;52.10
50955;DHT22;36966;48.064;-0.792;2023-06-22T07:23:26;25.50;52.20
50955;DHT22;36966;48.064;-0.792;2023-06-22T07:25:45;25.50;52.10
50955;DHT22;36966;48.064;-0.792;2023-06-22T07:28:06;25.40;52.10
50955;DHT22;36966;48.064;-0.792;2023-06-22T07:30:25;25.40;52.00
50955;DHT22;36966;48.064;-0.792;2023-06-22T07:32:44;25.50;52.00
50955;DHT22;36966;48.064;-0.792;2023-06-22T07:35:04;25.40;52.00
50955;DHT22;36966;48.064;-0.792;2023-06-22T07:37:23;25.50;52.00
50955;DHT22;36966;48.064;-0.792;2023-06-22T07:39:46;25.50;52.00
50955;DHT22;36966;48.064;-0.792;2023-06-22T07:42:05;25.50;51.90
50955;DHT22;36966;48.064;-0.792;2023-06-22T07:44:25;25.50;52.00
50955;DHT22;36966;48.064;-0.792;2023-06-22T07:46:44;25.50;52.00
50955;DHT22;36966;48.064;-0.792;2023-06-22T07:49:04;25.40;52.00
50955;DHT22;36966;48.064;-0.792;2023-06-22T07:51:23;25.50;52.00
50955;DHT22;36966;48.064;-0.792;2023-06-22T07:53:43;25.50;52.00
50955;DHT22;36966;48.064;-0.792;2023-06-22T07:56:03;25.50;52.00
50955;DHT22;36966;48.064;-0.792;2023-06-22T07:58:26;25.50;52.00
50955;DHT22;36966;48.064;-0.792;2023-06-22T08:00:46;25.50;52.00
50955;DHT22;36966;48.064;-0.792;2023-06-22T08:03:07;25.50;52.00
50955;DHT22;36966;48.064;-0.792;2023-06-22T08:05:26;25.50;52.00
50955;DHT22;36966;48.064;-0.792;2023-06-22T08:07:53;25.50;52.00
50955;DHT22;36966;48.064;-0.792;2023-06-22T08:10:13;25.50;52.10
50955;DHT22;36966;48.064;-0.792;2023-06-22T08:12:32;25.50;52.00
50955;DHT22;36966;48.064;-0.792;2023-06-22T08:14:52;25.50;51.90
50955;DHT22;36966;48.064;-0.792;2023-06-22T08:17:12;25.50;52.00
50955;DHT22;36966;48.064;-0.792;2023-06-22T08:19:32;25.50;51.90
50955;DHT22;36966;48.064;-0.792;2023-06-22T08:21:51;25.50;51.80
50955;DHT22;36966;48.064;-0.792;2023-06-22T08:24:13;25.50;51.90
50955;DHT22;36966;48.064;-0.792;2023-06-22T08:26:33;25.50;51.80
50955;DHT22;36966;48.064;-0.792;2023-06-22T08:28:55;25.50;51.80
50955;DHT22;36966;48.064;-0.792;2023-06-22T08:31:14;25.50;51.80
50955;DHT22;36966;48.064;-0.792;2023-06-22T08:33:33;25.50;51.80
50955;DHT22;36966;48.064;-0.792;2023-06-22T08:35:55;25.60;51.80
50955;DHT22;36966;48.064;-0.792;2023-06-22T08:38:15;25.60;51.80
50955;DHT22;36966;48.064;-0.792;2023-06-22T08:40:37;25.60;51.80
50955;DHT22;36966;48.064;-0.792;2023-06-22T08:42:56;25.70;51.80
50955;DHT22;36966;48.064;-0.792;2023-06-22T08:45:18;25.70;51.90
50955;DHT22;36966;48.064;-0.792;2023-06-22T08:47:38;25.70;51.90
50955;DHT22;36966;48.064;-0.792;2023-06-22T08:49:57;25.80;51.90
50955;DHT22;36966;48.064;-0.792;2023-06-22T08:52:17;25.80;51.90
50955;DHT22;36966;48.064;-0.792;2023-06-22T08:54:37;25.90;51.80
50955;DHT22;36966;48.064;-0.792;2023-06-22T08:56:57;25.90;51.70
50955;DHT22;36966;48.064;-0.792;2023-06-22T08:59:16;26.00;51.60
50955;DHT22;36966;48.064;-0.792;2023-06-22T09:01:35;26.00;51.10
50955;DHT22;36966;48.064;-0.792;2023-06-22T09:03:54;26.00;51.30
50955;DHT22;36966;48.064;-0.792;2023-06-22T09:06:16;26.00;51.10
50955;DHT22;36966;48.064;-0.792;2023-06-22T09:08:36;26.00;51.00
50955;DHT22;36966;48.064;-0.792;2023-06-22T09:10:56;26.00;50.20
50955;DHT22;36966;48.064;-0.792;2023-06-22T09:13:21;26.00;49.90
50955;DHT22;36966;48.064;-0.792;2023-06-22T09:15:41;25.90;49.60
50955;DHT22;36966;48.064;-0.792;2023-06-22T09:18:00;25.80;50.00
50955;DHT22;36966;48.064;-0.792;2023-06-22T09:20:20;25.80;50.00
50955;DHT22;36966;48.064;-0.792;2023-06-22T09:22:39;25.80;50.10
50955;DHT22;36966;48.064;-0.792;2023-06-22T09:24:58;25.80;50.00
50955;DHT22;36966;48.064;-0.792;2023-06-22T09:27:19;25.80;50.00
50955;DHT22;36966;48.064;-0.792;2023-06-22T09:29:38;25.80;49.90
50955;DHT22;36966;48.064;-0.792;2023-06-22T09:31:57;25.80;49.60
50955;DHT22;36966;48.064;-0.792;2023-06-22T09:34:16;25.80;49.60
50955;DHT22;36966;48.064;-0.792;2023-06-22T09:36:40;25.80;49.70
50955;DHT22;36966;48.064;-0.792;2023-06-22T09:39:00;25.80;49.80
50955;DHT22;36966;48.064;-0.792;2023-06-22T09:41:24;25.80;49.90
50955;DHT22;36966;48.064;-0.792;2023-06-22T09:43:43;25.80;49.80
50955;DHT22;36966;48.064;-0.792;2023-06-22T09:46:03;25.80;49.70
50955;DHT22;36966;48.064;-0.792;2023-06-22T09:48:22;25.80;49.60
50955;DHT22;36966;48.064;-0.792;2023-06-22T09:50:41;25.80;49.60
50955;DHT22;36966;48.064;-0.792;2023-06-22T09:53:01;25.80;49.50
50955;DHT22;36966;48.064;-0.792;2023-06-22T09:55:20;25.90;49.60
50955;DHT22;36966;48.064;-0.792;2023-06-22T09:57:39;25.90;48.90
50955;DHT22;36966;48.064;-0.792;2023-06-22T09:59:59;25.90;49.20
50955;DHT22;36966;48.064;-0.792;2023-06-22T10:02:18;25.90;49.50
50955;DHT22;36966;48.064;-0.792;2023-06-22T10:04:37;25.90;49.90
50955;DHT22;36966;48.064;-0.792;2023-06-22T10:06:58;25.90;49.90
50955;DHT22;36966;48.064;-0.792;2023-06-22T10:09:17;26.00;50.00
50955;DHT22;36966;48.064;-0.792;2023-06-22T10:11:37;26.10;50.00
50955;DHT22;36966;48.064;-0.792;2023-06-22T10:13:56;26.10;49.80
50955;DHT22;36966;48.064;-0.792;2023-06-22T10:16:16;26.20;49.30
50955;DHT22;36966;48.064;-0.792;2023-06-22T10:18:35;26.20;49.40
50955;DHT22;36966;48.064;-0.792;2023-06-22T10:20:55;26.30;49.10
50955;DHT22;36966;48.064;-0.792;2023-06-22T10:23:14;26.40;49.40
50955;DHT22;36966;48.064;-0.792;2023-06-22T10:25:33;26.40;49.50
50955;DHT22;36966;48.064;-0.792;2023-06-22T10:27:52;26.50;49.30
50955;DHT22;36966;48.064;-0.792;2023-06-22T10:30:12;26.50;49.80
50955;DHT22;36966;48.064;-0.792;2023-06-22T10:32:31;26.50;50.20
50955;DHT22;36966;48.064;-0.792;2023-06-22T10:34:51;26.50;50.10
50955;DHT22;36966;48.064;-0.792;2023-06-22T10:37:10;26.60;50.00
50955;DHT22;36966;48.064;-0.792;2023-06-22T10:39:29;26.60;50.00
50955;DHT22;36966;48.064;-0.792;2023-06-22T10:41:48;26.60;49.70
50955;DHT22;36966;48.064;-0.792;2023-06-22T10:44:08;26.60;50.40
50955;DHT22;36966;48.064;-0.792;2023-06-22T10:46:27;26.70;49.70
50955;DHT22;36966;48.064;-0.792;2023-06-22T10:48:46;26.70;50.20
50955;DHT22;36966;48.064;-0.792;2023-06-22T10:51:06;26.70;49.70
50955;DHT22;36966;48.064;-0.792;2023-06-22T10:53:25;26.70;50.30
50955;DHT22;36966;48.064;-0.792;2023-06-22T10:55:44;26.70;49.60
50955;DHT22;36966;48.064;-0.792;2023-06-22T10:58:04;26.80;49.50
50955;DHT22;36966;48.064;-0.792;2023-06-22T11:00:23;26.80;48.90
50955;DHT22;36966;48.064;-0.792;2023-06-22T11:02:42;26.80;49.40
50955;DHT22;36966;48.064;-0.792;2023-06-22T11:05:02;26.80;49.40
50955;DHT22;36966;48.064;-0.792;2023-06-22T11:07:22;26.90;48.30
50955;DHT22;36966;48.064;-0.792;2023-06-22T11:09:43;26.90;47.20
50955;DHT22;36966;48.064;-0.792;2023-06-22T11:12:02;26.90;47.50
50955;DHT22;36966;48.064;-0.792;2023-06-22T11:14:21;26.90;48.40
50955;DHT22;36966;48.064;-0.792;2023-06-22T11:16:41;26.80;48.90
50955;DHT22;36966;48.064;-0.792;2023-06-22T11:19:00;26.90;48.70
50955;DHT22;36966;48.064;-0.792;2023-06-22T11:21:19;26.90;48.80
50955;DHT22;36966;48.064;-0.792;2023-06-22T11:23:39;26.90;49.00
50955;DHT22;36966;48.064;-0.792;2023-06-22T11:25:58;26.90;49.10
50955;DHT22;36966;48.064;-0.792;2023-06-22T11:28:17;26.90;48.30
50955;DHT22;36966;48.064;-0.792;2023-06-22T11:30:36;26.90;48.60
50955;DHT22;36966;48.064;-0.792;2023-06-22T11:32:58;27.00;48.60
50955;DHT22;36966;48.064;-0.792;2023-06-22T11:35:18;26.90;48.90
50955;DHT22;36966;48.064;-0.792;2023-06-22T11:37:37;26.90;48.60
50955;DHT22;36966;48.064;-0.792;2023-06-22T11:39:56;26.90;48.90
50955;DHT22;36966;48.064;-0.792;2023-06-22T11:42:16;26.90;48.80
50955;DHT22;36966;48.064;-0.792;2023-06-22T11:44:36;27.00;48.00
50955;DHT22;36966;48.064;-0.792;2023-06-22T11:46:55;27.10;48.00
50955;DHT22;36966;48.064;-0.792;2023-06-22T11:49:14;27.10;48.20
50955;DHT22;36966;48.064;-0.792;2023-06-22T11:51:34;27.10;48.00
50955;DHT22;36966;48.064;-0.792;2023-06-22T11:53:53;27.00;48.40
50955;DHT22;36966;48.064;-0.792;2023-06-22T11:56:13;27.10;48.40
50955;DHT22;36966;48.064;-0.792;2023-06-22T11:58:32;27.10;48.20
50955;DHT22;36966;48.064;-0.792;2023-06-22T12:00:52;27.10;48.10
50955;DHT22;36966;48.064;-0.792;2023-06-22T12:03:11;27.10;47.90
50955;DHT22;36966;48.064;-0.792;2023-06-22T12:05:31;27.10;48.40
50955;DHT22;36966;48.064;-0.792;2023-06-22T12:07:50;27.00;48.70
50955;DHT22;36966;48.064;-0.792;2023-06-22T12:10:09;27.00;48.70
50955;DHT22;36966;48.064;-0.792;2023-06-22T12:12:29;27.00;48.30
50955;DHT22;36966;48.064;-0.792;2023-06-22T12:14:48;27.10;48.20
50955;DHT22;36966;48.064;-0.792;2023-06-22T12:17:07;27.10;47.80
50955;DHT22;36966;48.064;-0.792;2023-06-22T12:19:27;27.10;47.10
50955;DHT22;36966;48.064;-0.792;2023-06-22T12:21:46;27.10;47.70
50955;DHT22;36966;48.064;-0.792;2023-06-22T12:24:06;27.00;47.80
50955;DHT22;36966;48.064;-0.792;2023-06-22T12:26:25;27.00;48.00
50955;DHT22;36966;48.064;-0.792;2023-06-22T12:28:45;26.90;48.40
50955;DHT22;36966;48.064;-0.792;2023-06-22T12:31:04;26.90;48.70
50955;DHT22;36966;48.064;-0.792;2023-06-22T12:33:23;26.90;48.80
50955;DHT22;36966;48.064;-0.792;2023-06-22T12:35:43;26.80;48.80
50955;DHT22;36966;48.064;-0.792;2023-06-22T12:38:03;26.80;48.70
50955;DHT22;36966;48.064;-0.792;2023-06-22T12:40:25;26.80;48.70
50955;DHT22;36966;48.064;-0.792;2023-06-22T12:42:44;26.80;48.70
50955;DHT22;36966;48.064;-0.792;2023-06-22T12:45:04;26.80;48.50
50955;DHT22;36966;48.064;-0.792;2023-06-22T12:47:23;26.80;48.60
50955;DHT22;36966;48.064;-0.792;2023-06-22T12:49:43;26.80;48.40
50955;DHT22;36966;48.064;-0.792;2023-06-22T12:52:02;26.80;47.70
50955;DHT22;36966;48.064;-0.792;2023-06-22T12:54:22;26.80;48.20
50955;DHT22;36966;48.064;-0.792;2023-06-22T12:56:41;26.70;48.40
50955;DHT22;36966;48.064;-0.792;2023-06-22T12:59:03;26.70;48.60
50955;DHT22;36966;48.064;-0.792;2023-06-22T13:01:23;26.70;48.60
50955;DHT22;36966;48.064;-0.792;2023-06-22T13:03:42;26.80;48.60
50955;DHT22;36966;48.064;-0.792;2023-06-22T13:06:01;26.70;48.80
50955;DHT22;36966;48.064;-0.792;2023-06-22T13:08:22;26.70;48.80
50955;DHT22;36966;48.064;-0.792;2023-06-22T13:10:42;26.80;48.90
50955;DHT22;36966;48.064;-0.792;2023-06-22T13:13:01;26.70;48.90
50955;DHT22;36966;48.064;-0.792;2023-06-22T13:15:20;26.80;48.90
50955;DHT22;36966;48.064;-0.792;2023-06-22T13:17:39;26.80;48.90
50955;DHT22;36966;48.064;-0.792;2023-06-22T13:19:58;26.80;48.80
50955;DHT22;36966;48.064;-0.792;2023-06-22T13:22:31;26.80;48.80
50955;DHT22;36966;48.064;-0.792;2023-06-22T13:24:50;26.80;48.90
50955;DHT22;36966;48.064;-0.792;2023-06-22T13:27:09;26.80;48.90
50955;DHT22;36966;48.064;-0.792;2023-06-22T13:29:29;26.70;48.80
50955;DHT22;36966;48.064;-0.792;2023-06-22T13:31:48;26.70;48.90
50955;DHT22;36966;48.064;-0.792;2023-06-22T13:34:10;26.70;49.00
50955;DHT22;36966;48.064;-0.792;2023-06-22T13:36:29;26.70;49.00
50955;DHT22;36966;48.064;-0.792;2023-06-22T13:38:49;26.70;49.00
50955;DHT22;36966;48.064;-0.792;2023-06-22T13:41:09;26.70;49.10
50955;DHT22;36966;48.064;-0.792;2023-06-22T13:43:28;26.70;49.00
50955;DHT22;36966;48.064;-0.792;2023-06-22T13:45:50;26.70;48.80
50955;DHT22;36966;48.064;-0.792;2023-06-22T13:48:09;26.70;48.50
50955;DHT22;36966;48.064;-0.792;2023-06-22T13:50:29;26.70;48.70
50955;DHT22;36966;48.064;-0.792;2023-06-22T13:52:49;26.70;48.70
50955;DHT22;36966;48.064;-0.792;2023-06-22T13:55:08;26.70;48.90
50955;DHT22;36966;48.064;-0.792;2023-06-22T13:57:28;26.70;49.00
50955;DHT22;36966;48.064;-0.792;2023-06-22T13:59:47;26.60;49.20
50955;DHT22;36966;48.064;-0.792;2023-06-22T14:02:07;26.70;49.40
50955;DHT22;36966;48.064;-0.792;2023-06-22T14:04:26;26.70;49.40
50955;DHT22;36966;48.064;-0.792;2023-06-22T14:06:46;26.60;49.30
50955;DHT22;36966;48.064;-0.792;2023-06-22T14:09:05;26.70;49.50
50955;DHT22;36966;48.064;-0.792;2023-06-22T14:11:26;26.70;49.50
50955;DHT22;36966;48.064;-0.792;2023-06-22T14:13:45;26.60;49.60
50955;DHT22;36966;48.064;-0.792;2023-06-22T14:16:04;26.60;49.50
50955;DHT22;36966;48.064;-0.792;2023-06-22T14:18:25;26.60;49.50
50955;DHT22;36966;48.064;-0.792;2023-06-22T14:20:44;26.60;49.60
50955;DHT22;36966;48.064;-0.792;2023-06-22T14:23:04;26.60;49.50
50955;DHT22;36966;48.064;-0.792;2023-06-22T14:25:23;26.60;49.60
50955;DHT22;36966;48.064;-0.792;2023-06-22T14:27:42;26.60;49.70
50955;DHT22;36966;48.064;-0.792;2023-06-22T14:30:03;26.60;49.70
50955;DHT22;36966;48.064;-0.792;2023-06-22T14:32:23;26.60;49.70
50955;DHT22;36966;48.064;-0.792;2023-06-22T14:34:43;26.60;49.50